Dudley, Indiana
Current Conditions -  °F | °C
As of 9:53 PM on Friday 21 Nov 2014 (Local Time) from KMIE Reporting Station
Clear Clear  
Wind Chill: 16°   Ceiling: Unl
Heat Index: 26°   Visibility: 10mi
Dew Point: 12°   Wind: 10mph
Humidity: 55%   Direction: 180°S
Pressure: 30.36"   Gusts: NA
Location:  39.8307°N, 85.2704°W
Report Text: KMIE 220253Z 18009KT 10SM CLR M03/M11 A3036 RMK AO2 SLP291 T10331111 56012
Loading
Personal Weather Stations






























Interactive Weather Map New forecast layout! Learn more

10-Day Weather Forecast

Advertisements
Track Severe Weather on mobile